This is the latest recevied weather packets stored in our database for station/object KA1JKB. If no packets are shown the sender has not sent any weather packets the latest 10 day(s).
| Time | Temp. | Humidity | Pressure | Rain* | Wind** | Luminosity | Snow |
|---|---|---|---|---|---|---|---|
| 1777412444 | 16.11° C | 75% | 1009.2 hPa | 0 mm | - | 465 W/m² | - |
| 1777412143 | 16.67° C | 74% | 1009.3 hPa | 0 mm | - | 459 W/m² | - |
| 1777411839 | 15.56° C | 78% | 1009.4 hPa | 0 mm | - | 365 W/m² | - |
| 1777411537 | 16.11° C | 76% | 1009.3 hPa | 0 mm | - | 216 W/m² | - |
| 1777411233 | 15.56° C | 78% | 1009.6 hPa | 0 mm | - | 644 W/m² | - |
| 1777410932 | 15° C | 77% | 1009.5 hPa | 0 mm | - | 221 W/m² | - |
| 1777410632 | 15.56° C | 75% | 1009.6 hPa | 0 mm | - | 555 W/m² | - |
| 1777410328 | 16.11° C | 76% | 1009.5 hPa | 0 mm | - | 564 W/m² | - |
| 1777410021 | 15.56° C | 76% | 1009.8 hPa | 0 mm | - | 621 W/m² | - |
| 1777409716 | 15° C | 77% | 1009.7 hPa | 0 mm | - | 691 W/m² | - |
| 1777409413 | 15° C | 78% | 1009.9 hPa | 0 mm | - | 443 W/m² | - |
| 1777409109 | 15.56° C | 78% | 1009.9 hPa | 0 mm | - | 334 W/m² | - |
| 1777408804 | 15° C | 79% | 1009.7 hPa | 0 mm | - | 788 W/m² | - |
| 1777408501 | 15° C | 78% | 1010 hPa | 0 mm | - | 234 W/m² | - |
| 1777408195 | 15.56° C | 77% | 1010 hPa | 0 mm | - | 404 W/m² | - |
| 1777407891 | 15.56° C | 79% | 1009.8 hPa | 0 mm | - | 723 W/m² | - |
| 1777407589 | 15° C | 80% | 1009.8 hPa | 0 mm | - | 301 W/m² | - |
| 1777407289 | 15.56° C | 79% | 1009.8 hPa | 0 mm | - | 296 W/m² | - |
| 1777406983 | 15° C | 81% | 1009.9 hPa | 0 mm | - | 250 W/m² | - |
| 1777406683 | 15° C | 79% | 1009.8 hPa | 0 mm | - | 766 W/m² | - |
| 1777406379 | 15° C | 78% | 1009.8 hPa | 0 mm | - | 715 W/m² | - |
| 1777406078 | 15.56° C | 80% | 1009.9 hPa | 0 mm | - | 190 W/m² | - |
| 1777405775 | 15.56° C | 79% | 1009.6 hPa | 0 mm | - | 693 W/m² | - |
| 1777405471 | 15.56° C | 79% | 1009.6 hPa | 0 mm | - | 738 W/m² | - |
| 1777405170 | 15.56° C | 80% | 1009.6 hPa | 0 mm | - | 317 W/m² | - |
* Rain latest hour (hover to see other rain measurements)
** Current wind speed in m/s (hover to see current wind gust speed)